sensor_id;sensor_type;location;lat;lon;timestamp;temperature;humidity
54168;DHT22;68429;50.958;3.592;2024-03-23T00:52:14;7.60;99.90
54168;DHT22;68429;50.958;3.592;2024-03-23T00:54:39;7.60;99.90
54168;DHT22;68429;50.958;3.592;2024-03-23T00:57:05;7.70;99.90
54168;DHT22;68429;50.958;3.592;2024-03-23T00:59:31;7.60;99.90
54168;DHT22;68429;50.958;3.592;2024-03-23T01:01:56;7.80;99.90
54168;DHT22;68429;50.958;3.592;2024-03-23T01:04:22;7.70;99.90
54168;DHT22;68429;50.958;3.592;2024-03-23T01:06:48;7.70;99.90
54168;DHT22;68429;50.958;3.592;2024-03-23T01:09:13;7.60;99.90
54168;DHT22;68429;50.958;3.592;2024-03-23T01:11:39;7.60;99.90
54168;DHT22;68429;50.958;3.592;2024-03-23T01:14:06;7.60;99.90
54168;DHT22;68429;50.958;3.592;2024-03-23T01:16:32;7.70;99.90
54168;DHT22;68429;50.958;3.592;2024-03-23T01:18:57;7.70;99.90
54168;DHT22;68429;50.958;3.592;2024-03-23T01:21:23;7.80;99.90
54168;DHT22;68429;50.958;3.592;2024-03-23T01:23:49;7.80;99.90
54168;DHT22;68429;50.958;3.592;2024-03-23T01:26:14;7.80;99.90
54168;DHT22;68429;50.958;3.592;2024-03-23T01:28:40;7.90;99.90
54168;DHT22;68429;50.958;3.592;2024-03-23T01:31:06;7.80;99.90
54168;DHT22;68429;50.958;3.592;2024-03-23T01:33:31;7.80;99.90
54168;DHT22;68429;50.958;3.592;2024-03-23T01:35:57;7.70;99.90
54168;DHT22;68429;50.958;3.592;2024-03-23T01:38:23;7.80;99.90
54168;DHT22;68429;50.958;3.592;2024-03-23T01:40:49;7.60;99.90
54168;DHT22;68429;50.958;3.592;2024-03-23T01:43:14;7.60;99.90
54168;DHT22;68429;50.958;3.592;2024-03-23T01:45:40;7.50;99.90
54168;DHT22;68429;50.958;3.592;2024-03-23T01:48:06;7.50;99.90
54168;DHT22;68429;50.958;3.592;2024-03-23T01:50:32;7.50;99.90
54168;DHT22;68429;50.958;3.592;2024-03-23T01:53:02;7.50;99.90
54168;DHT22;68429;50.958;3.592;2024-03-23T01:55:28;7.60;99.90
54168;DHT22;68429;50.958;3.592;2024-03-23T01:57:56;7.50;99.90
54168;DHT22;68429;50.958;3.592;2024-03-23T02:00:22;7.50;99.90
54168;DHT22;68429;50.958;3.592;2024-03-23T02:02:48;7.50;99.90
54168;DHT22;68429;50.958;3.592;2024-03-23T02:05:14;7.40;99.90
54168;DHT22;68429;50.958;3.592;2024-03-23T02:07:41;7.40;99.90
54168;DHT22;68429;50.958;3.592;2024-03-23T02:10:07;7.50;99.90
54168;DHT22;68429;50.958;3.592;2024-03-23T02:12:33;7.50;99.90
54168;DHT22;68429;50.958;3.592;2024-03-23T02:14:59;7.60;99.90
54168;DHT22;68429;50.958;3.592;2024-03-23T02:17:26;7.50;99.90
54168;DHT22;68429;50.958;3.592;2024-03-23T02:19:51;7.50;99.90
54168;DHT22;68429;50.958;3.592;2024-03-23T02:22:17;7.50;99.90
54168;DHT22;68429;50.958;3.592;2024-03-23T02:24:43;7.40;99.90
54168;DHT22;68429;50.958;3.592;2024-03-23T02:27:08;7.50;99.90
54168;DHT22;68429;50.958;3.592;2024-03-23T02:29:34;7.40;99.90
54168;DHT22;68429;50.958;3.592;2024-03-23T02:32:00;7.30;99.90
54168;DHT22;68429;50.958;3.592;2024-03-23T02:34:26;7.30;99.90
54168;DHT22;68429;50.958;3.592;2024-03-23T02:36:52;7.50;99.90
54168;DHT22;68429;50.958;3.592;2024-03-23T02:39:18;7.50;99.90
54168;DHT22;68429;50.958;3.592;2024-03-23T02:41:43;7.40;99.90
54168;DHT22;68429;50.958;3.592;2024-03-23T02:44:09;7.50;99.90
54168;DHT22;68429;50.958;3.592;2024-03-23T02:46:37;7.50;99.90
54168;DHT22;68429;50.958;3.592;2024-03-23T02:49:03;7.40;99.90
54168;DHT22;68429;50.958;3.592;2024-03-23T02:51:30;7.40;99.90
54168;DHT22;68429;50.958;3.592;2024-03-23T02:53:55;7.50;99.90
54168;DHT22;68429;50.958;3.592;2024-03-23T02:56:21;7.50;99.90
54168;DHT22;68429;50.958;3.592;2024-03-23T02:58:47;7.30;99.90
54168;DHT22;68429;50.958;3.592;2024-03-23T03:01:13;7.30;99.90
54168;DHT22;68429;50.958;3.592;2024-03-23T03:03:38;7.20;99.90
54168;DHT22;68429;50.958;3.592;2024-03-23T03:06:04;7.20;99.90
54168;DHT22;68429;50.958;3.592;2024-03-23T03:08:30;7.10;99.90
54168;DHT22;68429;50.958;3.592;2024-03-23T03:10:55;6.90;99.90
54168;DHT22;68429;50.958;3.592;2024-03-23T03:13:21;7.00;99.90
54168;DHT22;68429;50.958;3.592;2024-03-23T03:15:47;6.90;99.90
54168;DHT22;68429;50.958;3.592;2024-03-23T03:18:13;6.90;99.90
54168;DHT22;68429;50.958;3.592;2024-03-23T03:20:41;6.90;99.90
54168;DHT22;68429;50.958;3.592;2024-03-23T03:23:07;6.80;99.90
54168;DHT22;68429;50.958;3.592;2024-03-23T03:25:33;6.90;99.90
54168;DHT22;68429;50.958;3.592;2024-03-23T03:27:59;7.00;99.90
54168;DHT22;68429;50.958;3.592;2024-03-23T03:30:25;7.00;99.90
54168;DHT22;68429;50.958;3.592;2024-03-23T03:32:53;7.10;99.90
54168;DHT22;68429;50.958;3.592;2024-03-23T03:35:20;7.20;99.90
54168;DHT22;68429;50.958;3.592;2024-03-23T03:37:46;7.30;99.90
54168;DHT22;68429;50.958;3.592;2024-03-23T03:40:12;7.30;99.90
54168;DHT22;68429;50.958;3.592;2024-03-23T03:42:38;7.20;99.90
54168;DHT22;68429;50.958;3.592;2024-03-23T03:45:04;7.10;99.90
54168;DHT22;68429;50.958;3.592;2024-03-23T03:47:30;7.00;99.90
54168;DHT22;68429;50.958;3.592;2024-03-23T03:49:56;7.00;99.90
54168;DHT22;68429;50.958;3.592;2024-03-23T03:52:22;7.00;99.90
54168;DHT22;68429;50.958;3.592;2024-03-23T03:54:47;7.00;99.90
54168;DHT22;68429;50.958;3.592;2024-03-23T03:57:13;7.10;99.90
54168;DHT22;68429;50.958;3.592;2024-03-23T03:59:39;7.00;99.90
54168;DHT22;68429;50.958;3.592;2024-03-23T04:02:04;6.80;99.90
54168;DHT22;68429;50.958;3.592;2024-03-23T04:04:30;6.90;99.90
54168;DHT22;68429;50.958;3.592;2024-03-23T04:07:00;6.90;99.90
54168;DHT22;68429;50.958;3.592;2024-03-23T04:09:26;6.90;99.90
54168;DHT22;68429;50.958;3.592;2024-03-23T04:11:54;6.90;99.90
54168;DHT22;68429;50.958;3.592;2024-03-23T04:14:20;6.90;99.90
54168;DHT22;68429;50.958;3.592;2024-03-23T04:16:46;6.90;99.90
54168;DHT22;68429;50.958;3.592;2024-03-23T04:19:11;6.90;99.90
54168;DHT22;68429;50.958;3.592;2024-03-23T04:21:40;6.80;99.90
54168;DHT22;68429;50.958;3.592;2024-03-23T04:24:06;6.80;99.90
54168;DHT22;68429;50.958;3.592;2024-03-23T04:26:41;6.80;99.90
54168;DHT22;68429;50.958;3.592;2024-03-23T04:29:07;7.00;99.90
54168;DHT22;68429;50.958;3.592;2024-03-23T04:31:32;6.90;99.90
54168;DHT22;68429;50.958;3.592;2024-03-23T04:34:02;6.80;99.90
54168;DHT22;68429;50.958;3.592;2024-03-23T04:36:29;6.70;99.90
54168;DHT22;68429;50.958;3.592;2024-03-23T04:38:55;6.70;99.90
54168;DHT22;68429;50.958;3.592;2024-03-23T04:41:20;6.70;99.90
54168;DHT22;68429;50.958;3.592;2024-03-23T04:43:46;6.70;99.90
54168;DHT22;68429;50.958;3.592;2024-03-23T04:46:12;6.60;99.90
54168;DHT22;68429;50.958;3.592;2024-03-23T04:48:37;6.60;99.90
54168;DHT22;68429;50.958;3.592;2024-03-23T04:51:04;6.50;99.90
54168;DHT22;68429;50.958;3.592;2024-03-23T04:53:29;6.50;99.90
54168;DHT22;68429;50.958;3.592;2024-03-23T04:55:56;6.40;99.90
54168;DHT22;68429;50.958;3.592;2024-03-23T04:58:24;6.40;99.90
54168;DHT22;68429;50.958;3.592;2024-03-23T05:00:54;6.50;99.90
54168;DHT22;68429;50.958;3.592;2024-03-23T05:03:20;6.40;99.90
54168;DHT22;68429;50.958;3.592;2024-03-23T05:05:50;6.40;99.90
54168;DHT22;68429;50.958;3.592;2024-03-23T05:08:16;6.40;99.90
54168;DHT22;68429;50.958;3.592;2024-03-23T05:10:45;6.50;99.90
54168;DHT22;68429;50.958;3.592;2024-03-23T05:13:14;6.40;99.90
54168;DHT22;68429;50.958;3.592;2024-03-23T05:15:39;6.50;99.90
54168;DHT22;68429;50.958;3.592;2024-03-23T05:18:05;6.50;99.90
54168;DHT22;68429;50.958;3.592;2024-03-23T05:20:31;6.50;99.90
54168;DHT22;68429;50.958;3.592;2024-03-23T05:22:57;6.50;99.90
54168;DHT22;68429;50.958;3.592;2024-03-23T05:25:23;6.50;99.90
54168;DHT22;68429;50.958;3.592;2024-03-23T05:27:49;6.50;99.90
54168;DHT22;68429;50.958;3.592;2024-03-23T05:30:15;6.50;99.90
54168;DHT22;68429;50.958;3.592;2024-03-23T05:32:40;6.50;99.90
54168;DHT22;68429;50.958;3.592;2024-03-23T05:35:09;6.50;99.90
54168;DHT22;68429;50.958;3.592;2024-03-23T05:37:35;6.50;99.90
54168;DHT22;68429;50.958;3.592;2024-03-23T05:40:01;6.50;99.90
54168;DHT22;68429;50.958;3.592;2024-03-23T05:42:29;6.40;99.90
54168;DHT22;68429;50.958;3.592;2024-03-23T05:44:54;6.50;99.90
54168;DHT22;68429;50.958;3.592;2024-03-23T05:47:20;6.40;99.90
54168;DHT22;68429;50.958;3.592;2024-03-23T05:49:46;6.40;99.90
54168;DHT22;68429;50.958;3.592;2024-03-23T05:52:13;6.30;99.90
54168;DHT22;68429;50.958;3.592;2024-03-23T05:54:38;6.40;99.90
54168;DHT22;68429;50.958;3.592;2024-03-23T05:57:04;6.50;99.90
54168;DHT22;68429;50.958;3.592;2024-03-23T05:59:33;6.50;99.90
54168;DHT22;68429;50.958;3.592;2024-03-23T06:01:58;6.50;99.90
54168;DHT22;68429;50.958;3.592;2024-03-23T06:04:24;6.50;99.90
54168;DHT22;68429;50.958;3.592;2024-03-23T06:06:51;6.50;99.90
54168;DHT22;68429;50.958;3.592;2024-03-23T06:09:18;6.50;99.90
54168;DHT22;68429;50.958;3.592;2024-03-23T06:11:44;6.50;99.90
54168;DHT22;68429;50.958;3.592;2024-03-23T06:14:11;6.50;99.90
54168;DHT22;68429;50.958;3.592;2024-03-23T06:16:37;6.50;99.90
54168;DHT22;68429;50.958;3.592;2024-03-23T06:19:03;6.60;99.90
54168;DHT22;68429;50.958;3.592;2024-03-23T06:21:30;6.60;99.90
54168;DHT22;68429;50.958;3.592;2024-03-23T06:23:56;6.60;99.90
54168;DHT22;68429;50.958;3.592;2024-03-23T06:26:21;6.50;99.90
54168;DHT22;68429;50.958;3.592;2024-03-23T06:28:47;6.40;99.90
54168;DHT22;68429;50.958;3.592;2024-03-23T06:31:13;6.20;99.90
54168;DHT22;68429;50.958;3.592;2024-03-23T06:33:39;6.10;99.90
54168;DHT22;68429;50.958;3.592;2024-03-23T06:36:09;6.20;99.90
54168;DHT22;68429;50.958;3.592;2024-03-23T06:38:35;6.20;99.90
54168;DHT22;68429;50.958;3.592;2024-03-23T06:41:03;6.10;99.90
54168;DHT22;68429;50.958;3.592;2024-03-23T06:43:28;6.10;99.90
54168;DHT22;68429;50.958;3.592;2024-03-23T06:45:54;6.40;99.90
54168;DHT22;68429;50.958;3.592;2024-03-23T06:48:20;6.90;99.90
54168;DHT22;68429;50.958;3.592;2024-03-23T06:50:46;7.10;99.90
54168;DHT22;68429;50.958;3.592;2024-03-23T06:53:15;7.40;99.90
54168;DHT22;68429;50.958;3.592;2024-03-23T06:55:41;7.90;99.90
54168;DHT22;68429;50.958;3.592;2024-03-23T06:58:08;8.40;99.90
54168;DHT22;68429;50.958;3.592;2024-03-23T07:00:33;8.70;99.90
54168;DHT22;68429;50.958;3.592;2024-03-23T07:03:02;8.90;99.90
54168;DHT22;68429;50.958;3.592;2024-03-23T07:05:29;8.50;99.90
54168;DHT22;68429;50.958;3.592;2024-03-23T07:07:55;8.20;99.90
54168;DHT22;68429;50.958;3.592;2024-03-23T07:10:20;7.90;99.90
54168;DHT22;68429;50.958;3.592;2024-03-23T07:12:46;7.60;99.90
54168;DHT22;68429;50.958;3.592;2024-03-23T07:15:11;7.30;99.90
54168;DHT22;68429;50.958;3.592;2024-03-23T07:17:37;7.10;99.90
54168;DHT22;68429;50.958;3.592;2024-03-23T07:20:03;7.10;99.90
54168;DHT22;68429;50.958;3.592;2024-03-23T07:22:32;7.30;99.90
54168;DHT22;68429;50.958;3.592;2024-03-23T07:25:00;7.60;99.90
54168;DHT22;68429;50.958;3.592;2024-03-23T07:27:26;7.50;99.90
54168;DHT22;68429;50.958;3.592;2024-03-23T07:29:52;7.60;99.90
54168;DHT22;68429;50.958;3.592;2024-03-23T07:32:17;7.80;99.90
54168;DHT22;68429;50.958;3.592;2024-03-23T07:34:43;8.00;99.90
54168;DHT22;68429;50.958;3.592;2024-03-23T07:37:10;8.10;99.90
54168;DHT22;68429;50.958;3.592;2024-03-23T07:39:35;8.40;99.90
54168;DHT22;68429;50.958;3.592;2024-03-23T07:42:04;8.20;99.90
54168;DHT22;68429;50.958;3.592;2024-03-23T07:44:30;8.10;99.90
54168;DHT22;68429;50.958;3.592;2024-03-23T07:46:56;8.40;99.90
54168;DHT22;68429;50.958;3.592;2024-03-23T07:49:24;8.60;99.90
54168;DHT22;68429;50.958;3.592;2024-03-23T07:51:50;8.70;99.90
54168;DHT22;68429;50.958;3.592;2024-03-23T07:54:16;8.50;99.90
54168;DHT22;68429;50.958;3.592;2024-03-23T07:56:41;8.40;99.90
54168;DHT22;68429;50.958;3.592;2024-03-23T07:59:07;8.70;99.90
54168;DHT22;68429;50.958;3.592;2024-03-23T08:01:32;9.30;99.90
54168;DHT22;68429;50.958;3.592;2024-03-23T08:03:58;10.00;99.90
54168;DHT22;68429;50.958;3.592;2024-03-23T08:06:24;10.50;99.90
54168;DHT22;68429;50.958;3.592;2024-03-23T08:08:55;10.40;99.90
54168;DHT22;68429;50.958;3.592;2024-03-23T08:11:31;10.60;99.90
54168;DHT22;68429;50.958;3.592;2024-03-23T08:13:57;10.30;99.90
54168;DHT22;68429;50.958;3.592;2024-03-23T08:16:23;10.10;99.90
54168;DHT22;68429;50.958;3.592;2024-03-23T08:18:53;9.90;99.90
54168;DHT22;68429;50.958;3.592;2024-03-23T08:21:18;9.50;99.90
54168;DHT22;68429;50.958;3.592;2024-03-23T08:23:44;9.40;99.90
54168;DHT22;68429;50.958;3.592;2024-03-23T08:26:13;9.40;99.90
54168;DHT22;68429;50.958;3.592;2024-03-23T08:28:39;9.20;99.90
54168;DHT22;68429;50.958;3.592;2024-03-23T08:31:07;9.30;99.90
54168;DHT22;68429;50.958;3.592;2024-03-23T08:33:33;9.80;99.90
54168;DHT22;68429;50.958;3.592;2024-03-23T08:36:03;9.70;99.90
54168;DHT22;68429;50.958;3.592;2024-03-23T08:38:29;10.10;99.90
54168;DHT22;68429;50.958;3.592;2024-03-23T08:41:09;10.30;99.90
54168;DHT22;68429;50.958;3.592;2024-03-23T08:43:42;11.00;99.90
54168;DHT22;68429;50.958;3.592;2024-03-23T08:48:35;10.90;99.90
54168;DHT22;68429;50.958;3.592;2024-03-23T08:51:02;10.20;99.90
54168;DHT22;68429;50.958;3.592;2024-03-23T08:53:29;10.10;99.90
54168;DHT22;68429;50.958;3.592;2024-03-23T08:55:56;10.20;99.90
54168;DHT22;68429;50.958;3.592;2024-03-23T08:58:23;10.40;99.90
54168;DHT22;68429;50.958;3.592;2024-03-23T09:00:50;10.40;99.90
54168;DHT22;68429;50.958;3.592;2024-03-23T09:03:16;10.60;99.90
54168;DHT22;68429;50.958;3.592;2024-03-23T09:05:42;10.40;99.90
54168;DHT22;68429;50.958;3.592;2024-03-23T09:08:07;10.30;99.90
54168;DHT22;68429;50.958;3.592;2024-03-23T09:10:38;10.00;99.90
54168;DHT22;68429;50.958;3.592;2024-03-23T09:13:04;10.00;99.90
54168;DHT22;68429;50.958;3.592;2024-03-23T09:15:30;10.00;99.90
54168;DHT22;68429;50.958;3.592;2024-03-23T09:17:58;10.20;99.90
54168;DHT22;68429;50.958;3.592;2024-03-23T09:20:24;10.60;99.90
54168;DHT22;68429;50.958;3.592;2024-03-23T09:22:49;10.70;99.90
54168;DHT22;68429;50.958;3.592;2024-03-23T09:25:15;10.40;99.90
54168;DHT22;68429;50.958;3.592;2024-03-23T09:27:41;10.50;99.90
54168;DHT22;68429;50.958;3.592;2024-03-23T09:30:07;10.60;99.90
54168;DHT22;68429;50.958;3.592;2024-03-23T09:32:32;10.80;99.90
54168;DHT22;68429;50.958;3.592;2024-03-23T09:34:58;10.70;99.90
54168;DHT22;68429;50.958;3.592;2024-03-23T09:37:24;10.50;99.90
54168;DHT22;68429;50.958;3.592;2024-03-23T09:39:49;10.40;99.90
54168;DHT22;68429;50.958;3.592;2024-03-23T09:42:15;9.90;99.90
54168;DHT22;68429;50.958;3.592;2024-03-23T09:44:41;9.50;99.90
54168;DHT22;68429;50.958;3.592;2024-03-23T09:47:08;10.20;99.90
54168;DHT22;68429;50.958;3.592;2024-03-23T09:49:34;10.80;99.90
54168;DHT22;68429;50.958;3.592;2024-03-23T09:52:02;10.50;99.90
54168;DHT22;68429;50.958;3.592;2024-03-23T09:54:28;10.30;99.90
54168;DHT22;68429;50.958;3.592;2024-03-23T09:56:54;10.40;99.90
54168;DHT22;68429;50.958;3.592;2024-03-23T09:59:20;10.50;99.90
54168;DHT22;68429;50.958;3.592;2024-03-23T10:01:47;10.70;99.90
54168;DHT22;68429;50.958;3.592;2024-03-23T10:04:39;10.80;99.90
54168;DHT22;68429;50.958;3.592;2024-03-23T10:07:14;11.70;99.90
54168;DHT22;68429;50.958;3.592;2024-03-23T10:09:41;12.10;99.90
54168;DHT22;68429;50.958;3.592;2024-03-23T10:12:10;12.30;99.90
54168;DHT22;68429;50.958;3.592;2024-03-23T10:14:36;12.10;99.90
54168;DHT22;68429;50.958;3.592;2024-03-23T10:17:31;12.20;99.90
54168;DHT22;68429;50.958;3.592;2024-03-23T10:19:57;12.30;99.90
54168;DHT22;68429;50.958;3.592;2024-03-23T10:22:23;12.00;99.90
54168;DHT22;68429;50.958;3.592;2024-03-23T10:24:52;11.60;99.90
54168;DHT22;68429;50.958;3.592;2024-03-23T10:27:20;12.20;99.90
54168;DHT22;68429;50.958;3.592;2024-03-23T10:29:46;12.80;99.90
54168;DHT22;68429;50.958;3.592;2024-03-23T10:32:13;12.80;99.90
54168;DHT22;68429;50.958;3.592;2024-03-23T10:34:39;12.20;99.90
54168;DHT22;68429;50.958;3.592;2024-03-23T10:37:06;11.60;99.90
54168;DHT22;68429;50.958;3.592;2024-03-23T10:39:33;11.20;99.90
54168;DHT22;68429;50.958;3.592;2024-03-23T10:42:02;11.10;99.90
54168;DHT22;68429;50.958;3.592;2024-03-23T10:44:29;11.00;99.90
54168;DHT22;68429;50.958;3.592;2024-03-23T10:47:00;11.10;99.90
54168;DHT22;68429;50.958;3.592;2024-03-23T10:49:30;12.70;99.90
54168;DHT22;68429;50.958;3.592;2024-03-23T10:51:58;13.10;98.50
54168;DHT22;68429;50.958;3.592;2024-03-23T10:54:25;12.40;98.80
54168;DHT22;68429;50.958;3.592;2024-03-23T10:56:56;12.10;99.50
54168;DHT22;68429;50.958;3.592;2024-03-23T10:59:24;11.80;99.70
54168;DHT22;68429;50.958;3.592;2024-03-23T11:01:54;10.70;99.90
54168;DHT22;68429;50.958;3.592;2024-03-23T11:04:33;9.90;99.90
54168;DHT22;68429;50.958;3.592;2024-03-23T11:07:00;9.60;99.90
54168;DHT22;68429;50.958;3.592;2024-03-23T11:09:39;10.40;99.90
54168;DHT22;68429;50.958;3.592;2024-03-23T11:17:25;12.70;99.90
54168;DHT22;68429;50.958;3.592;2024-03-23T11:20:11;14.10;99.90
54168;DHT22;68429;50.958;3.592;2024-03-23T11:22:44;13.50;98.20
54168;DHT22;68429;50.958;3.592;2024-03-23T11:25:14;12.90;99.70
54168;DHT22;68429;50.958;3.592;2024-03-23T11:27:39;13.30;99.90
54168;DHT22;68429;50.958;3.592;2024-03-23T11:30:16;13.60;99.30
54168;DHT22;68429;50.958;3.592;2024-03-23T11:32:53;13.30;98.50
54168;DHT22;68429;50.958;3.592;2024-03-23T11:43:08;14.30;96.30
54168;DHT22;68429;50.958;3.592;2024-03-23T11:45:39;13.90;96.10
54168;DHT22;68429;50.958;3.592;2024-03-23T11:48:07;13.40;96.30
54168;DHT22;68429;50.958;3.592;2024-03-23T11:50:35;12.80;97.00
54168;DHT22;68429;50.958;3.592;2024-03-23T11:58:11;11.00;99.90
54168;DHT22;68429;50.958;3.592;2024-03-23T12:00:37;10.90;99.90
54168;DHT22;68429;50.958;3.592;2024-03-23T12:03:03;12.20;99.50
54168;DHT22;68429;50.958;3.592;2024-03-23T12:05:33;12.30;98.50
54168;DHT22;68429;50.958;3.592;2024-03-23T12:10:54;11.40;98.40
54168;DHT22;68429;50.958;3.592;2024-03-23T12:13:29;11.00;98.80
54168;DHT22;68429;50.958;3.592;2024-03-23T12:15:55;10.60;98.90
54168;DHT22;68429;50.958;3.592;2024-03-23T12:18:34;10.40;98.70
54168;DHT22;68429;50.958;3.592;2024-03-23T12:21:00;10.30;99.10
54168;DHT22;68429;50.958;3.592;2024-03-23T12:23:25;10.30;99.90
54168;DHT22;68429;50.958;3.592;2024-03-23T12:25:51;10.90;99.50
54168;DHT22;68429;50.958;3.592;2024-03-23T12:28:16;12.80;99.50
54168;DHT22;68429;50.958;3.592;2024-03-23T12:30:42;13.70;97.20
54168;DHT22;68429;50.958;3.592;2024-03-23T12:33:08;14.20;97.10
54168;DHT22;68429;50.958;3.592;2024-03-23T12:35:34;15.10;96.00
54168;DHT22;68429;50.958;3.592;2024-03-23T12:37:59;15.90;94.80
54168;DHT22;68429;50.958;3.592;2024-03-23T12:40:25;16.40;93.10
54168;DHT22;68429;50.958;3.592;2024-03-23T12:42:54;15.40;94.20
54168;DHT22;68429;50.958;3.592;2024-03-23T12:45:21;14.70;95.70
54168;DHT22;68429;50.958;3.592;2024-03-23T12:47:47;14.80;95.80
54168;DHT22;68429;50.958;3.592;2024-03-23T12:50:13;14.10;96.00
54168;DHT22;68429;50.958;3.592;2024-03-23T12:52:38;13.70;96.00
54168;DHT22;68429;50.958;3.592;2024-03-23T12:55:04;13.40;96.50
54168;DHT22;68429;50.958;3.592;2024-03-23T12:57:31;12.90;96.80
54168;DHT22;68429;50.958;3.592;2024-03-23T12:59:58;12.60;97.40
54168;DHT22;68429;50.958;3.592;2024-03-23T13:02:23;12.30;98.10
54168;DHT22;68429;50.958;3.592;2024-03-23T13:04:50;13.00;98.10
54168;DHT22;68429;50.958;3.592;2024-03-23T13:07:19;13.50;96.40
54168;DHT22;68429;50.958;3.592;2024-03-23T13:09:45;12.80;96.80
54168;DHT22;68429;50.958;3.592;2024-03-23T13:12:11;13.30;96.30
54168;DHT22;68429;50.958;3.592;2024-03-23T13:14:40;14.40;95.70
54168;DHT22;68429;50.958;3.592;2024-03-23T13:17:06;14.90;93.70
54168;DHT22;68429;50.958;3.592;2024-03-23T13:19:32;14.00;95.00
54168;DHT22;68429;50.958;3.592;2024-03-23T13:21:59;14.20;94.40
54168;DHT22;68429;50.958;3.592;2024-03-23T13:24:25;14.20;95.00
54168;DHT22;68429;50.958;3.592;2024-03-23T13:26:52;13.20;95.50
54168;DHT22;68429;50.958;3.592;2024-03-23T13:29:21;12.30;96.50
54168;DHT22;68429;50.958;3.592;2024-03-23T13:31:48;11.80;97.50
54168;DHT22;68429;50.958;3.592;2024-03-23T13:34:14;11.70;97.60
54168;DHT22;68429;50.958;3.592;2024-03-23T13:36:44;11.50;97.50
54168;DHT22;68429;50.958;3.592;2024-03-23T13:39:11;11.30;97.60
54168;DHT22;68429;50.958;3.592;2024-03-23T13:41:41;11.00;96.60
54168;DHT22;68429;50.958;3.592;2024-03-23T13:44:07;10.70;97.80
54168;DHT22;68429;50.958;3.592;2024-03-23T13:46:33;10.40;98.40
54168;DHT22;68429;50.958;3.592;2024-03-23T13:48:59;10.30;99.30
54168;DHT22;68429;50.958;3.592;2024-03-23T13:51:27;10.80;99.80
54168;DHT22;68429;50.958;3.592;2024-03-23T13:53:56;12.20;98.00
54168;DHT22;68429;50.958;3.592;2024-03-23T13:56:23;13.70;95.90
54168;DHT22;68429;50.958;3.592;2024-03-23T13:58:49;14.80;93.60
54168;DHT22;68429;50.958;3.592;2024-03-23T14:01:15;14.70;93.70
54168;DHT22;68429;50.958;3.592;2024-03-23T14:03:42;14.60;94.60
54168;DHT22;68429;50.958;3.592;2024-03-23T14:06:09;14.90;93.80
54168;DHT22;68429;50.958;3.592;2024-03-23T14:08:36;14.70;93.80
54168;DHT22;68429;50.958;3.592;2024-03-23T14:11:07;15.10;94.10
54168;DHT22;68429;50.958;3.592;2024-03-23T14:13:32;14.80;93.90
54168;DHT22;68429;50.958;3.592;2024-03-23T14:15:59;14.80;94.30
54168;DHT22;68429;50.958;3.592;2024-03-23T14:18:25;14.40;94.80
54168;DHT22;68429;50.958;3.592;2024-03-23T14:20:57;14.40;94.30
54168;DHT22;68429;50.958;3.592;2024-03-23T14:23:29;14.40;95.00
54168;DHT22;68429;50.958;3.592;2024-03-23T14:25:56;14.10;95.70
54168;DHT22;68429;50.958;3.592;2024-03-23T14:28:23;13.60;95.90
54168;DHT22;68429;50.958;3.592;2024-03-23T14:30:50;12.80;95.60
54168;DHT22;68429;50.958;3.592;2024-03-23T14:33:17;12.00;96.70
54168;DHT22;68429;50.958;3.592;2024-03-23T14:35:51;11.50;98.10
54168;DHT22;68429;50.958;3.592;2024-03-23T14:38:18;11.40;99.00
54168;DHT22;68429;50.958;3.592;2024-03-23T14:40:44;11.60;98.30
54168;DHT22;68429;50.958;3.592;2024-03-23T14:43:10;11.40;98.50
54168;DHT22;68429;50.958;3.592;2024-03-23T14:45:36;11.50;99.20
54168;DHT22;68429;50.958;3.592;2024-03-23T14:48:02;11.80;98.50
54168;DHT22;68429;50.958;3.592;2024-03-23T14:50:28;12.10;97.30
54168;DHT22;68429;50.958;3.592;2024-03-23T14:52:54;12.10;98.00
54168;DHT22;68429;50.958;3.592;2024-03-23T14:55:20;12.30;97.90
54168;DHT22;68429;50.958;3.592;2024-03-23T14:57:47;12.40;98.10
54168;DHT22;68429;50.958;3.592;2024-03-23T15:00:14;13.10;96.90
54168;DHT22;68429;50.958;3.592;2024-03-23T15:02:40;13.40;96.00
54168;DHT22;68429;50.958;3.592;2024-03-23T15:05:06;13.40;96.00
54168;DHT22;68429;50.958;3.592;2024-03-23T15:07:38;13.80;95.60
54168;DHT22;68429;50.958;3.592;2024-03-23T15:10:06;14.50;94.40
54168;DHT22;68429;50.958;3.592;2024-03-23T15:12:33;14.40;94.40
54168;DHT22;68429;50.958;3.592;2024-03-23T15:15:00;14.10;93.80
54168;DHT22;68429;50.958;3.592;2024-03-23T15:17:26;14.30;92.70
54168;DHT22;68429;50.958;3.592;2024-03-23T15:19:52;13.90;92.70
54168;DHT22;68429;50.958;3.592;2024-03-23T15:22:19;13.80;93.10
54168;DHT22;68429;50.958;3.592;2024-03-23T15:24:47;13.90;93.30
54168;DHT22;68429;50.958;3.592;2024-03-23T15:27:13;13.60;93.80
54168;DHT22;68429;50.958;3.592;2024-03-23T15:29:39;13.10;95.10
54168;DHT22;68429;50.958;3.592;2024-03-23T15:32:05;13.10;94.80
54168;DHT22;68429;50.958;3.592;2024-03-23T15:34:31;12.80;95.00
54168;DHT22;68429;50.958;3.592;2024-03-23T15:36:57;13.10;94.30
54168;DHT22;68429;50.958;3.592;2024-03-23T15:39:23;13.70;94.40
54168;DHT22;68429;50.958;3.592;2024-03-23T15:41:49;14.20;93.90
54168;DHT22;68429;50.958;3.592;2024-03-23T15:44:15;14.30;94.00
54168;DHT22;68429;50.958;3.592;2024-03-23T15:46:41;13.80;94.10
54168;DHT22;68429;50.958;3.592;2024-03-23T15:49:07;13.10;94.20
54168;DHT22;68429;50.958;3.592;2024-03-23T15:51:33;13.10;95.20
54168;DHT22;68429;50.958;3.592;2024-03-23T15:54:01;12.70;95.00
54168;DHT22;68429;50.958;3.592;2024-03-23T15:56:28;12.20;94.50
54168;DHT22;68429;50.958;3.592;2024-03-23T15:58:54;11.90;96.00
54168;DHT22;68429;50.958;3.592;2024-03-23T16:01:20;11.60;96.50
54168;DHT22;68429;50.958;3.592;2024-03-23T16:03:47;11.20;97.20
54168;DHT22;68429;50.958;3.592;2024-03-23T16:06:13;11.00;97.60
54168;DHT22;68429;50.958;3.592;2024-03-23T16:08:39;11.20;97.30
54168;DHT22;68429;50.958;3.592;2024-03-23T16:11:06;10.90;97.50
54168;DHT22;68429;50.958;3.592;2024-03-23T16:13:33;10.80;98.40
54168;DHT22;68429;50.958;3.592;2024-03-23T16:16:01;10.90;98.80
54168;DHT22;68429;50.958;3.592;2024-03-23T16:18:34;10.80;99.00
54168;DHT22;68429;50.958;3.592;2024-03-23T16:21:04;10.80;98.40
54168;DHT22;68429;50.958;3.592;2024-03-23T16:23:32;10.70;98.40
54168;DHT22;68429;50.958;3.592;2024-03-23T16:25:58;10.60;98.80
54168;DHT22;68429;50.958;3.592;2024-03-23T16:28:47;10.50;99.20
54168;DHT22;68429;50.958;3.592;2024-03-23T16:31:14;10.40;99.90
54168;DHT22;68429;50.958;3.592;2024-03-23T16:34:00;10.00;99.90
54168;DHT22;68429;50.958;3.592;2024-03-23T16:36:25;9.50;99.90
54168;DHT22;68429;50.958;3.592;2024-03-23T16:38:51;9.20;99.90
54168;DHT22;68429;50.958;3.592;2024-03-23T16:41:17;8.90;99.90
54168;DHT22;68429;50.958;3.592;2024-03-23T16:43:44;8.80;99.90
54168;DHT22;68429;50.958;3.592;2024-03-23T16:46:12;8.50;99.90
54168;DHT22;68429;50.958;3.592;2024-03-23T16:48:38;8.50;99.90
54168;DHT22;68429;50.958;3.592;2024-03-23T16:51:06;8.40;99.90